Martin City, Missouri
Current Conditions -  °F | °C
As of 7:53 PM on Sunday 23 Nov 2014 (Local Time) from KOJC Reporting Station
Light Rain Light Rain  
Wind Chill: 33°   Ceiling: 1400
Heat Index: 42°   Visibility: 7mi
Dew Point: 39°   Wind: 23mph
Humidity: 89%   Direction: 340°NNW
Pressure: 29.44"   Gusts: 32mph
Location:  38.8519°N, 94.5455°W
Report Text: KOJC 240153Z 34020G28KT 7SM -RA BKN014 OVC022 06/04 A2944 RMK AO2 PK WND 35033/0136 SLP969 P0006 T00560039
Loading
Personal Weather Stations






























Interactive Weather Map New forecast layout! Learn more

10-Day Weather Forecast

Advertisements
Track Severe Weather on mobile